createdAt,value
2018-02-08T00:02:09.870Z,48.50
2018-02-08T00:04:38.974Z,48.30
2018-02-08T00:07:08.042Z,48.50
2018-02-08T00:09:37.105Z,48.30
2018-02-08T00:12:06.238Z,48.20
2018-02-08T00:14:35.298Z,48.10
2018-02-08T00:17:04.403Z,48.40
2018-02-08T00:19:33.481Z,48.70
2018-02-08T00:22:02.706Z,49.20
2018-02-08T00:24:31.773Z,49.50
2018-02-08T00:27:00.838Z,49.90
2018-02-08T00:29:29.938Z,49.80
2018-02-08T00:31:59.054Z,49.50
2018-02-08T00:34:28.118Z,49.50
2018-02-08T00:36:57.227Z,49.50
2018-02-08T00:39:26.291Z,49.40
2018-02-08T00:41:55.477Z,50.00
2018-02-08T00:44:24.545Z,49.30
2018-02-08T00:46:53.649Z,49.40
2018-02-08T00:49:22.749Z,49.50
2018-02-08T00:51:51.814Z,49.80
2018-02-08T00:54:20.936Z,49.80
2018-02-08T00:56:50.002Z,49.60
2018-02-08T00:59:19.145Z,48.80
2018-02-08T01:01:48.211Z,48.80
2018-02-08T01:04:17.278Z,48.90
2018-02-08T01:06:46.386Z,49.00
2018-02-08T01:09:15.467Z,49.20
2018-02-08T01:11:45.298Z,49.80
2018-02-08T01:14:15.149Z,49.70
2018-02-08T01:16:44.242Z,49.70
2018-02-08T01:19:14.092Z,49.70
2018-02-08T01:21:43.185Z,49.70
2018-02-08T01:24:12.306Z,49.70
2018-02-08T01:26:41.394Z,49.70
2018-02-08T01:29:11.342Z,49.70
2018-02-08T01:31:40.429Z,49.70
2018-02-08T01:34:10.409Z,49.70
2018-02-08T01:36:39.533Z,49.70
2018-02-08T01:39:08.602Z,49.60
2018-02-08T01:41:37.709Z,49.70
2018-02-08T01:44:06.798Z,49.70
2018-02-08T01:46:36.649Z,50.00
2018-02-08T01:49:05.781Z,49.90
2018-02-08T01:51:34.878Z,49.70
2018-02-08T01:54:04.033Z,50.10
2018-02-08T01:56:33.141Z,50.20
2018-02-08T01:59:02.266Z,50.10
2018-02-08T02:01:32.188Z,50.70
2018-02-08T02:04:01.250Z,50.10
2018-02-08T02:06:30.318Z,49.70
2018-02-08T02:09:00.197Z,50.10
2018-02-08T02:11:29.281Z,49.90
2018-02-08T02:13:58.429Z,50.40
2018-02-08T02:16:27.521Z,50.10
2018-02-08T02:18:56.646Z,50.40
2018-02-08T02:21:25.717Z,50.50
2018-02-08T02:23:54.857Z,50.80
2018-02-08T02:26:23.945Z,50.60
2018-02-08T02:28:53.047Z,50.30
2018-02-08T02:31:22.189Z,50.10
2018-02-08T02:33:51.323Z,49.60
2018-02-08T02:36:20.409Z,49.60
2018-02-08T02:38:49.482Z,50.50
2018-02-08T02:41:19.361Z,50.70
2018-02-08T02:43:48.426Z,50.70
2018-02-08T02:46:17.606Z,50.70
2018-02-08T02:48:46.706Z,50.80
2018-02-08T02:51:15.861Z,50.70
2018-02-08T02:53:44.974Z,51.00
2018-02-08T02:56:14.041Z,51.00
2018-02-08T02:58:43.241Z,50.90
2018-02-08T03:01:12.333Z,50.60
2018-02-08T03:03:41.402Z,50.60
2018-02-08T03:06:11.254Z,49.50
2018-02-08T03:08:40.318Z,49.50
2018-02-08T03:11:09.465Z,49.50
2018-02-08T03:13:38.549Z,49.50
2018-02-08T03:16:08.459Z,49.60
2018-02-08T03:18:37.533Z,49.60
2018-02-08T03:21:06.626Z,49.50
2018-02-08T03:23:35.709Z,49.40
2018-02-08T03:26:05.613Z,50.20
2018-02-08T03:28:34.743Z,50.20
2018-02-08T03:31:16.738Z,50.40
2018-02-08T03:33:45.832Z,50.20
2018-02-08T03:36:14.930Z,49.90
2018-02-08T03:38:44.018Z,49.50
2018-02-08T03:41:13.134Z,49.30
2018-02-08T03:43:42.201Z,49.50
2018-02-08T03:46:12.116Z,48.80
2018-02-08T03:48:41.186Z,48.80
2018-02-08T03:51:10.281Z,49.30
2018-02-08T03:53:39.378Z,49.50
2018-02-08T03:56:08.445Z,49.30
2018-02-08T03:58:38.358Z,49.80
2018-02-08T04:01:07.428Z,49.30
2018-02-08T04:03:36.522Z,49.90
2018-02-08T04:06:06.350Z,49.30
2018-02-08T04:08:36.293Z,49.50
2018-02-08T04:11:05.366Z,49.40
2018-02-08T04:13:34.490Z,49.50
2018-02-08T04:16:04.354Z,49.80
2018-02-08T04:18:33.451Z,49.70
2018-02-08T04:21:02.544Z,49.90
2018-02-08T04:23:32.433Z,49.60
2018-02-08T04:26:02.429Z,49.60
2018-02-08T04:28:31.494Z,49.50
2018-02-08T04:31:00.605Z,49.40
2018-02-08T04:33:29.673Z,49.40
2018-02-08T04:35:58.808Z,49.10
2018-02-08T04:38:45.820Z,49.20
2018-02-08T04:41:32.711Z,49.20
2018-02-08T04:44:20.497Z,49.10
2018-02-08T04:46:58.979Z,49.10
2018-02-08T04:49:28.869Z,49.10
2018-02-08T04:51:57.938Z,49.10
2018-02-08T04:54:27.123Z,49.50
2018-02-08T04:56:57.677Z,49.90
2018-02-08T04:59:27.705Z,50.00
2018-02-08T05:01:57.556Z,50.00
2018-02-08T05:04:26.654Z,50.00
2018-02-08T05:06:56.517Z,49.10
2018-02-08T05:09:25.600Z,49.10
2018-02-08T05:11:54.720Z,49.30
2018-02-08T05:14:23.781Z,49.30
2018-02-08T05:16:53.781Z,50.50
2018-02-08T05:19:22.864Z,49.60
2018-02-08T05:21:51.973Z,49.60
2018-02-08T05:24:21.094Z,49.40
2018-02-08T05:26:50.192Z,49.20
2018-02-08T05:29:19.272Z,49.00
2018-02-08T05:31:49.890Z,49.30
2018-02-08T05:34:18.971Z,49.30
2018-02-08T05:36:48.093Z,48.90
2018-02-08T05:39:17.189Z,49.00
2018-02-08T05:41:46.341Z,49.00
2018-02-08T05:44:15.406Z,48.90
2018-02-08T05:46:44.474Z,49.30
2018-02-08T05:49:13.594Z,49.00
2018-02-08T05:51:42.707Z,48.90
2018-02-08T05:54:12.541Z,49.00
2018-02-08T05:56:42.520Z,49.00
2018-02-08T05:59:11.641Z,48.90
2018-02-08T06:01:40.745Z,49.00
2018-02-08T06:04:09.810Z,48.90
2018-02-08T06:06:39.694Z,48.50
2018-02-08T06:09:08.789Z,48.50
2018-02-08T06:11:37.928Z,48.30
2018-02-08T06:14:07.058Z,48.40
2018-02-08T06:16:36.973Z,48.60
2018-02-08T06:19:06.057Z,48.00
2018-02-08T06:21:35.161Z,47.70
2018-02-08T06:24:04.278Z,47.50
2018-02-08T06:26:33.422Z,47.40
2018-02-08T06:29:03.253Z,47.90
2018-02-08T06:31:32.397Z,47.40
2018-02-08T06:34:01.526Z,47.40
2018-02-08T06:36:30.593Z,47.60
2018-02-08T06:39:00.454Z,48.00
2018-02-08T06:41:29.552Z,47.90
2018-02-08T06:43:58.690Z,48.00
2018-02-08T06:46:27.754Z,47.70
2018-02-08T06:48:57.609Z,47.60
2018-02-08T06:51:26.817Z,47.60
2018-02-08T06:53:55.901Z,47.30
2018-02-08T06:56:25.758Z,47.00
2018-02-08T06:58:54.841Z,46.90
2018-02-08T07:01:24.809Z,46.70
2018-02-08T07:03:53.917Z,46.70
2018-02-08T07:06:22.986Z,46.80
2018-02-08T07:08:52.855Z,47.20
2018-02-08T07:11:21.957Z,47.20
2018-02-08T07:13:51.049Z,47.30
2018-02-08T07:16:20.193Z,47.10
2018-02-08T07:18:49.263Z,46.80
2018-02-08T07:21:19.179Z,46.50
2018-02-08T07:23:49.033Z,46.70
2018-02-08T07:26:18.167Z,46.20
2018-02-08T07:28:47.277Z,46.30
2018-02-08T07:31:16.443Z,46.20
2018-02-08T07:33:45.481Z,46.30
2018-02-08T07:36:14.617Z,46.40
2018-02-08T07:38:43.735Z,46.00
2018-02-08T07:41:12.861Z,46.60
2018-02-08T07:43:41.978Z,46.40
2018-02-08T07:46:11.058Z,46.80
2018-02-08T07:48:40.262Z,45.80
2018-02-08T07:51:09.340Z,45.60
2018-02-08T07:53:39.228Z,46.20
2018-02-08T07:56:08.319Z,46.20
2018-02-08T07:58:37.458Z,46.30
2018-02-08T08:01:06.637Z,46.50
2018-02-08T08:03:35.845Z,46.40
2018-02-08T08:06:04.916Z,46.20
2018-02-08T08:08:34.774Z,46.20
2018-02-08T08:11:03.846Z,46.20
2018-02-08T08:13:33.682Z,46.20
2018-02-08T08:16:03.567Z,45.60
2018-02-08T08:18:32.655Z,45.50
2018-02-08T08:21:01.822Z,45.60
2018-02-08T08:23:31.681Z,46.00
2018-02-08T08:26:00.806Z,45.90
2018-02-08T08:28:29.902Z,45.60
2018-02-08T08:30:59.027Z,45.60
2018-02-08T08:33:28.105Z,45.90
2018-02-08T08:35:57.205Z,45.70
2018-02-08T08:38:27.058Z,45.70
2018-02-08T08:40:56.208Z,45.70
2018-02-08T08:43:25.311Z,45.30
2018-02-08T08:45:54.438Z,45.20
2018-02-08T08:48:25.034Z,45.00
2018-02-08T08:50:54.777Z,44.90
2018-02-08T08:53:23.876Z,45.10
2018-02-08T08:55:52.993Z,44.50
2018-02-08T08:58:22.158Z,44.50
2018-02-08T09:00:51.298Z,44.40
2018-02-08T09:03:20.386Z,45.10
2018-02-08T09:05:50.265Z,43.60
2018-02-08T09:08:19.381Z,43.50
2018-02-08T09:10:48.609Z,43.50
2018-02-08T09:13:17.694Z,43.10
2018-02-08T09:15:46.810Z,42.30
2018-02-08T09:18:15.945Z,42.80
2018-02-08T09:20:45.057Z,42.40
2018-02-08T09:23:14.177Z,42.50
2018-02-08T09:25:43.255Z,41.90
2018-02-08T09:28:12.349Z,42.20
2018-02-08T09:30:41.441Z,41.70
2018-02-08T09:33:10.693Z,41.50
2018-02-08T09:35:39.767Z,41.20
2018-02-08T09:38:08.898Z,41.10
2018-02-08T09:40:37.975Z,41.50
2018-02-08T09:43:07.835Z,40.50
2018-02-08T09:45:36.906Z,40.50
2018-02-08T09:48:06.790Z,40.70
2018-02-08T09:50:35.864Z,40.70
2018-02-08T09:53:05.021Z,40.60
2018-02-08T09:55:34.094Z,40.80
2018-02-08T09:58:03.216Z,39.90
2018-02-08T10:00:32.416Z,39.70
2018-02-08T10:03:01.506Z,39.00
2018-02-08T10:05:30.602Z,39.00
2018-02-08T10:08:00.434Z,38.60
2018-02-08T10:10:30.349Z,38.40
2018-02-08T10:13:00.205Z,38.50
2018-02-08T10:15:29.296Z,37.80
2018-02-08T10:17:59.128Z,36.80
2018-02-08T10:20:29.025Z,35.90
2018-02-08T10:22:58.128Z,35.90
2018-02-08T10:25:27.210Z,35.70
2018-02-08T10:27:56.290Z,34.80
2018-02-08T10:30:26.202Z,35.10
2018-02-08T10:32:55.253Z,35.10
2018-02-08T10:35:24.330Z,35.50
2018-02-08T10:37:54.202Z,34.40
2018-02-08T10:40:23.277Z,34.40
2018-02-08T10:42:53.114Z,33.90
2018-02-08T10:45:22.166Z,33.80
2018-02-08T10:47:51.245Z,34.60
2018-02-08T10:50:20.341Z,33.20
2018-02-08T10:52:49.409Z,33.10
2018-02-08T10:55:18.489Z,32.60
2018-02-08T10:57:47.565Z,33.10
2018-02-08T11:00:17.417Z,31.10
2018-02-08T11:02:46.517Z,31.10
2018-02-08T11:05:15.738Z,32.30
2018-02-08T11:07:44.807Z,31.00
2018-02-08T11:10:13.909Z,31.00
2018-02-08T11:12:42.970Z,30.50
2018-02-08T11:15:12.055Z,30.00
2018-02-08T11:17:41.494Z,30.00
2018-02-08T11:20:10.546Z,29.50
2018-02-08T11:22:39.653Z,29.20
2018-02-08T11:25:08.729Z,29.20
2018-02-08T11:27:37.782Z,28.90
2018-02-08T11:30:08.372Z,28.70
2018-02-08T11:32:37.425Z,28.60
2018-02-08T11:35:06.550Z,27.80
2018-02-08T11:37:35.609Z,27.70
2018-02-08T11:40:04.737Z,25.30
2018-02-08T11:42:33.821Z,26.40
2018-02-08T11:45:02.870Z,26.50
2018-02-08T11:47:31.967Z,26.80
2018-02-08T11:50:01.119Z,27.10
2018-02-08T11:52:30.193Z,26.70
2018-02-08T11:54:59.266Z,27.00
2018-02-08T11:57:28.407Z,27.10
2018-02-08T11:59:57.462Z,27.50
2018-02-08T12:02:27.341Z,27.60
2018-02-08T12:04:56.394Z,27.60
2018-02-08T12:07:25.445Z,28.10
2018-02-08T12:09:54.541Z,28.20
2018-02-08T12:12:23.600Z,27.70
2018-02-08T12:14:52.726Z,27.60
2018-02-08T12:17:21.790Z,27.00
2018-02-08T12:19:50.914Z,27.00
2018-02-08T12:22:19.970Z,27.20
2018-02-08T12:24:49.846Z,26.80
2018-02-08T12:27:18.924Z,26.80
2018-02-08T12:29:48.792Z,26.90
2018-02-08T12:32:17.921Z,26.90
2018-02-08T12:34:46.993Z,26.40
2018-02-08T12:37:16.093Z,26.30
2018-02-08T12:39:45.170Z,26.30
2018-02-08T12:42:15.037Z,26.80
2018-02-08T12:44:44.095Z,26.50
2018-02-08T12:47:13.198Z,27.10
2018-02-08T12:49:42.381Z,27.20
2018-02-08T12:52:11.469Z,27.50
2018-02-08T12:54:40.557Z,27.60
2018-02-08T12:57:10.374Z,26.90
2018-02-08T12:59:39.483Z,26.80
2018-02-08T13:02:08.632Z,26.80
2018-02-08T13:04:37.806Z,26.80
2018-02-08T13:07:07.074Z,26.70
2018-02-08T13:09:36.182Z,26.60
2018-02-08T13:12:05.262Z,26.70
2018-02-08T13:14:35.082Z,26.40
2018-02-08T13:17:04.942Z,26.80
2018-02-08T13:19:33.997Z,26.80
2018-02-08T13:22:03.142Z,26.50
2018-02-08T13:24:32.231Z,26.50
2018-02-08T13:27:01.361Z,26.60
2018-02-08T13:29:31.194Z,26.70
2018-02-08T13:32:00.294Z,26.60
2018-02-08T13:34:29.406Z,26.60
2018-02-08T13:36:59.270Z,27.20
2018-02-08T13:39:29.169Z,27.10
2018-02-08T13:41:58.269Z,27.00
2018-02-08T13:44:28.165Z,26.90
2018-02-08T13:46:57.318Z,26.80
2018-02-08T13:52:41.982Z,27.20
2018-02-08T13:55:21.862Z,27.10
2018-02-08T13:57:50.975Z,26.90
2018-02-08T14:03:23.490Z,26.70
2018-02-08T14:05:52.586Z,26.60
2018-02-08T14:08:21.631Z,26.90
2018-02-08T14:10:50.726Z,27.10
2018-02-08T14:13:19.807Z,27.10
2018-02-08T14:15:48.881Z,26.50
2018-02-08T14:18:18.694Z,27.00
2018-02-08T14:20:48.598Z,27.00
2018-02-08T14:23:17.673Z,27.10
2018-02-08T14:25:46.801Z,26.50
2018-02-08T14:28:15.855Z,27.40
2018-02-08T14:30:44.945Z,26.80
2018-02-08T14:33:14.022Z,26.70
2018-02-08T14:35:43.150Z,26.70
2018-02-08T14:38:12.198Z,26.90
2018-02-08T14:40:42.083Z,26.50
2018-02-08T14:43:11.169Z,26.50
2018-02-08T14:45:40.246Z,26.50
2018-02-08T14:48:10.071Z,27.20
2018-02-08T14:50:39.965Z,27.20
2018-02-08T14:53:09.093Z,27.10
2018-02-08T14:55:38.174Z,27.20
2018-02-08T14:58:07.310Z,27.20
2018-02-08T15:00:36.489Z,27.30
2018-02-08T15:03:05.538Z,27.40
2018-02-08T15:05:34.731Z,27.50
2018-02-08T15:08:04.590Z,28.30
2018-02-08T15:10:33.686Z,28.30
2018-02-08T15:13:02.794Z,28.30
2018-02-08T15:15:31.936Z,28.50
2018-02-08T15:18:01.744Z,29.10
2018-02-08T15:20:30.841Z,29.00
2018-02-08T15:22:59.946Z,29.20
2018-02-08T15:25:29.017Z,29.30
2018-02-08T15:27:58.123Z,29.80
2018-02-08T15:30:27.254Z,29.50
2018-02-08T15:32:56.330Z,29.80
2018-02-08T15:35:26.209Z,30.00
2018-02-08T15:37:55.281Z,30.00
2018-02-08T15:40:24.330Z,30.10
2018-02-08T15:42:53.406Z,30.00
2018-02-08T15:45:22.482Z,30.40
2018-02-08T15:47:52.354Z,30.40
2018-02-08T15:50:21.410Z,30.30
2018-02-08T15:52:51.293Z,30.90
2018-02-08T15:55:20.358Z,31.50
2018-02-08T15:57:50.265Z,32.60
2018-02-08T16:00:19.411Z,32.50
2018-02-08T16:02:49.285Z,33.40
2018-02-08T16:05:18.374Z,33.40
2018-02-08T16:07:47.493Z,33.40
2018-02-08T16:10:16.569Z,33.80
2018-02-08T16:12:46.478Z,34.50
2018-02-08T16:15:15.587Z,34.50
2018-02-08T16:17:44.649Z,34.60
2018-02-08T16:20:13.771Z,35.20
2018-02-08T16:22:42.850Z,34.60
2018-02-08T16:25:11.956Z,34.60
2018-02-08T16:27:41.053Z,34.40
2018-02-08T16:30:11.006Z,34.90
2018-02-08T16:32:40.807Z,35.00
2018-02-08T16:35:10.702Z,35.20
2018-02-08T16:37:39.772Z,35.20
2018-02-08T16:40:08.843Z,35.50
2018-02-08T16:42:37.958Z,36.10
2018-02-08T16:45:07.814Z,37.30
2018-02-08T16:47:36.879Z,37.20
2018-02-08T16:50:05.959Z,36.70
2018-02-08T16:52:35.084Z,36.50
2018-02-08T16:55:04.154Z,36.40
2018-02-08T16:57:33.242Z,36.30
2018-02-08T17:00:03.090Z,35.80
2018-02-08T17:02:32.221Z,35.70
2018-02-08T17:05:01.303Z,35.90
2018-02-08T17:07:31.257Z,35.90
2018-02-08T17:10:00.315Z,35.90
2018-02-08T17:12:29.397Z,36.10
2018-02-08T17:14:58.593Z,36.10
2018-02-08T17:17:27.706Z,35.90
2018-02-08T17:19:56.816Z,36.00
2018-02-08T17:22:25.897Z,36.10
2018-02-08T17:24:55.038Z,35.90
2018-02-08T17:27:24.098Z,36.30
2018-02-08T17:29:53.969Z,36.70
2018-02-08T17:32:23.028Z,36.70
2018-02-08T17:34:52.094Z,36.80
2018-02-08T17:37:21.181Z,37.00
2018-02-08T17:39:50.262Z,37.00
2018-02-08T17:42:20.133Z,38.00
2018-02-08T17:44:49.213Z,37.40
2018-02-08T17:47:19.114Z,38.20
2018-02-08T17:49:48.205Z,38.20
2018-02-08T17:52:17.347Z,38.10
2018-02-08T17:54:46.413Z,38.20
2018-02-08T17:57:15.526Z,38.20
2018-02-08T17:59:44.613Z,38.30
2018-02-08T18:02:13.806Z,38.40
2018-02-08T18:04:43.626Z,38.60
2018-02-08T18:07:13.514Z,38.20
2018-02-08T18:09:42.597Z,38.20
2018-02-08T18:12:11.677Z,38.10
2018-02-08T18:14:41.553Z,38.70
2018-02-08T18:17:10.614Z,38.70
2018-02-08T18:19:39.738Z,38.70
2018-02-08T18:22:08.790Z,38.70
2018-02-08T18:24:37.918Z,38.70
2018-02-08T18:27:07.006Z,38.90
2018-02-08T18:29:36.062Z,38.80
2018-02-08T18:32:05.909Z,38.90
2018-02-08T18:34:34.993Z,38.80
2018-02-08T18:37:04.814Z,39.10
2018-02-08T18:39:33.898Z,39.10
2018-02-08T18:42:03.029Z,39.70
2018-02-08T18:44:32.129Z,39.70
2018-02-08T18:47:01.238Z,39.50
2018-02-08T18:49:30.338Z,39.30
2018-02-08T18:51:59.407Z,39.30
2018-02-08T18:54:28.486Z,40.00
2018-02-08T18:56:57.609Z,41.10
2018-02-08T18:59:27.461Z,40.90
2018-02-08T19:01:56.844Z,40.90
2018-02-08T19:04:26.730Z,41.20
2018-02-08T19:06:55.790Z,40.60
2018-02-08T19:09:25.694Z,40.50
2018-02-08T19:11:54.786Z,40.50
2018-02-08T19:14:23.918Z,41.20
2018-02-08T19:16:53.078Z,41.90
2018-02-08T19:19:22.198Z,41.90
2018-02-08T19:21:51.260Z,42.00
2018-02-08T19:24:20.389Z,42.00
2018-02-08T19:26:50.209Z,42.00
2018-02-08T19:29:20.089Z,41.90
2018-02-08T19:31:49.166Z,41.90
2018-02-08T19:34:18.302Z,42.00
2018-02-08T19:36:47.362Z,43.10
2018-02-08T19:39:17.326Z,44.20
2018-02-08T19:41:46.418Z,44.00
2018-02-08T19:44:16.321Z,43.40
2018-02-08T19:46:45.390Z,43.40
2018-02-08T19:49:14.493Z,43.10
2018-02-08T19:51:43.609Z,43.50
2018-02-08T19:54:12.682Z,43.90
2018-02-08T19:56:42.703Z,44.00
2018-02-08T19:59:11.996Z,43.90
2018-02-08T20:01:41.191Z,44.30
2018-02-08T20:04:10.259Z,43.50
2018-02-08T20:06:40.206Z,43.30
2018-02-08T20:09:09.298Z,43.20
2018-02-08T20:11:38.496Z,43.10
2018-02-08T20:14:13.933Z,43.90
2018-02-08T20:16:43.712Z,43.70
2018-02-08T20:19:12.810Z,44.50
2018-02-08T20:21:42.662Z,44.00
2018-02-08T20:24:11.749Z,43.90
2018-02-08T20:26:40.831Z,43.70
2018-02-08T20:29:09.977Z,44.10
2018-02-08T20:31:39.051Z,44.20
2018-02-08T20:34:08.414Z,44.10
2018-02-08T20:36:37.482Z,45.00
2018-02-08T20:39:07.317Z,45.30
2018-02-08T20:41:37.225Z,44.70
2018-02-08T20:44:06.292Z,44.70
2018-02-08T20:46:35.370Z,44.40
2018-02-08T20:49:05.220Z,44.30
2018-02-08T20:51:34.310Z,44.20
2018-02-08T20:54:03.493Z,44.30
2018-02-08T20:56:32.621Z,44.30
2018-02-08T20:59:01.709Z,44.50
2018-02-08T21:01:31.094Z,44.50
2018-02-08T21:04:00.153Z,44.80
2018-02-08T21:06:30.057Z,44.50
2018-02-08T21:08:59.157Z,44.50
2018-02-08T21:11:28.245Z,44.50
2018-02-08T21:13:57.331Z,44.40
2018-02-08T21:16:27.305Z,44.70
2018-02-08T21:18:56.378Z,44.60
2018-02-08T21:21:25.497Z,44.70
2018-02-08T21:23:54.553Z,44.50
2018-02-08T21:26:23.670Z,44.70
2018-02-08T21:28:53.521Z,44.80
2018-02-08T21:31:23.386Z,44.50
2018-02-08T21:33:53.477Z,44.50
2018-02-08T21:36:23.369Z,44.40
2018-02-08T21:38:52.467Z,44.40
2018-02-08T21:41:21.526Z,44.50
2018-02-08T21:43:50.697Z,44.70
2018-02-08T21:46:19.798Z,45.20
2018-02-08T21:48:48.950Z,45.50
2018-02-08T21:51:18.102Z,45.50
2018-02-08T21:53:47.194Z,45.40
2018-02-08T21:56:17.021Z,45.50
2018-02-08T21:58:46.917Z,45.40
2018-02-08T22:01:15.986Z,45.40
2018-02-08T22:03:45.089Z,45.40
2018-02-08T22:06:14.185Z,45.40
2018-02-08T22:08:43.252Z,45.40
2018-02-08T22:11:12.306Z,45.30
2018-02-08T22:13:41.449Z,45.30
2018-02-08T22:16:10.506Z,45.30
2018-02-08T22:18:40.381Z,45.40
2018-02-08T22:21:09.776Z,45.30
2018-02-08T22:23:38.870Z,45.30
2018-02-08T22:26:08.898Z,45.30
2018-02-08T22:28:38.734Z,46.20
2018-02-08T22:31:09.034Z,47.60
2018-02-08T22:33:39.662Z,47.90
2018-02-08T22:36:08.762Z,48.50
2018-02-08T22:38:37.845Z,47.50
2018-02-08T22:41:07.002Z,47.10
2018-02-08T22:43:36.077Z,46.70
2018-02-08T22:46:05.194Z,46.30
2018-02-08T22:48:34.254Z,46.10
2018-02-08T22:51:03.359Z,45.80
2018-02-08T22:53:32.425Z,45.60
2018-02-08T22:56:01.575Z,45.90
2018-02-08T22:58:32.059Z,46.60
2018-02-08T23:01:01.126Z,46.50
2018-02-08T23:03:30.278Z,46.40
2018-02-08T23:05:59.366Z,46.50
2018-02-08T23:08:28.458Z,46.60
2018-02-08T23:10:57.533Z,47.10
2018-02-08T23:13:26.690Z,47.30
2018-02-08T23:15:55.761Z,47.20
2018-02-08T23:18:24.954Z,47.00
2018-02-08T23:20:54.339Z,46.90
2018-02-08T23:23:24.163Z,46.80
2018-02-08T23:25:54.044Z,46.60
2018-02-08T23:28:23.099Z,46.60
2018-02-08T23:30:52.241Z,46.60
2018-02-08T23:33:21.335Z,48.10
2018-02-08T23:35:51.158Z,47.80
2018-02-08T23:38:21.017Z,47.80
2018-02-08T23:40:50.109Z,47.80
2018-02-08T23:43:19.990Z,48.70
2018-02-08T23:45:49.145Z,48.70
2018-02-08T23:48:19.002Z,47.90
2018-02-08T23:50:48.121Z,47.90
2018-02-08T23:53:17.269Z,47.70
2018-02-08T23:55:46.349Z,47.80
2018-02-08T23:58:15.453Z,49.00
